sensor_id;sensor_type;location;lat;lon;timestamp;P1;durP1;ratioP1;P2;durP2;ratioP2
19848;SDS011;10085;51.120;6.956;2023-05-20T00:00:44;4.40;;;4.00;;
19848;SDS011;10085;51.120;6.956;2023-05-20T00:05:48;4.43;;;4.03;;
19848;SDS011;10085;51.120;6.956;2023-05-20T00:10:50;4.22;;;3.83;;
19848;SDS011;10085;51.120;6.956;2023-05-20T00:15:53;3.90;;;3.60;;
19848;SDS011;10085;51.120;6.956;2023-05-20T00:20:57;3.60;;;3.30;;
19848;SDS011;10085;51.120;6.956;2023-05-20T00:26:00;4.03;;;3.40;;
19848;SDS011;10085;51.120;6.956;2023-05-20T00:31:03;4.18;;;3.47;;
19848;SDS011;10085;51.120;6.956;2023-05-20T00:36:07;4.40;;;3.50;;
19848;SDS011;10085;51.120;6.956;2023-05-20T00:41:10;3.78;;;3.10;;
19848;SDS011;10085;51.120;6.956;2023-05-20T00:46:13;4.18;;;3.00;;
19848;SDS011;10085;51.120;6.956;2023-05-20T00:51:17;4.32;;;3.47;;
19848;SDS011;10085;51.120;6.956;2023-05-20T00:56:20;6.35;;;3.10;;
19848;SDS011;10085;51.120;6.956;2023-05-20T01:01:23;3.85;;;3.20;;
19848;SDS011;10085;51.120;6.956;2023-05-20T01:06:27;4.57;;;2.90;;
19848;SDS011;10085;51.120;6.956;2023-05-20T01:11:31;3.60;;;2.95;;
19848;SDS011;10085;51.120;6.956;2023-05-20T01:16:36;3.47;;;2.70;;
19848;SDS011;10085;51.120;6.956;2023-05-20T01:21:42;3.50;;;2.90;;
19848;SDS011;10085;51.120;6.956;2023-05-20T01:26:46;5.60;;;2.90;;
19848;SDS011;10085;51.120;6.956;2023-05-20T01:31:50;3.28;;;2.80;;
19848;SDS011;10085;51.120;6.956;2023-05-20T01:36:55;3.00;;;2.42;;
19848;SDS011;10085;51.120;6.956;2023-05-20T01:41:59;3.00;;;2.70;;
19848;SDS011;10085;51.120;6.956;2023-05-20T01:47:03;2.85;;;2.45;;
19848;SDS011;10085;51.120;6.956;2023-05-20T01:52:06;3.85;;;2.72;;
19848;SDS011;10085;51.120;6.956;2023-05-20T01:57:11;4.15;;;2.63;;
19848;SDS011;10085;51.120;6.956;2023-05-20T02:02:13;2.88;;;2.58;;
19848;SDS011;10085;51.120;6.956;2023-05-20T02:07:17;3.20;;;2.50;;
19848;SDS011;10085;51.120;6.956;2023-05-20T02:12:21;2.88;;;2.30;;
19848;SDS011;10085;51.120;6.956;2023-05-20T02:17:24;3.85;;;2.63;;
19848;SDS011;10085;51.120;6.956;2023-05-20T02:22:27;3.30;;;2.70;;
19848;SDS011;10085;51.120;6.956;2023-05-20T02:27:31;3.25;;;2.60;;
19848;SDS011;10085;51.120;6.956;2023-05-20T02:32:34;2.90;;;2.63;;
19848;SDS011;10085;51.120;6.956;2023-05-20T02:37:37;4.35;;;2.60;;
19848;SDS011;10085;51.120;6.956;2023-05-20T02:42:41;3.47;;;2.50;;
19848;SDS011;10085;51.120;6.956;2023-05-20T02:47:44;3.22;;;2.45;;
19848;SDS011;10085;51.120;6.956;2023-05-20T02:52:47;3.08;;;2.55;;
19848;SDS011;10085;51.120;6.956;2023-05-20T02:57:52;3.55;;;2.20;;
19848;SDS011;10085;51.120;6.956;2023-05-20T03:02:56;4.25;;;2.60;;
19848;SDS011;10085;51.120;6.956;2023-05-20T03:08:02;3.17;;;2.45;;
19848;SDS011;10085;51.120;6.956;2023-05-20T03:13:06;3.35;;;2.50;;
19848;SDS011;10085;51.120;6.956;2023-05-20T03:18:11;4.32;;;2.20;;
19848;SDS011;10085;51.120;6.956;2023-05-20T03:23:14;3.13;;;2.40;;
19848;SDS011;10085;51.120;6.956;2023-05-20T03:28:19;3.05;;;2.40;;
19848;SDS011;10085;51.120;6.956;2023-05-20T03:33:21;2.97;;;2.25;;
19848;SDS011;10085;51.120;6.956;2023-05-20T03:38:27;4.85;;;2.35;;
19848;SDS011;10085;51.120;6.956;2023-05-20T03:43:31;3.13;;;2.42;;
19848;SDS011;10085;51.120;6.956;2023-05-20T03:48:34;3.13;;;2.30;;
19848;SDS011;10085;51.120;6.956;2023-05-20T03:53:38;3.50;;;2.40;;
19848;SDS011;10085;51.120;6.956;2023-05-20T03:58:42;3.05;;;2.20;;
19848;SDS011;10085;51.120;6.956;2023-05-20T04:03:48;4.22;;;2.40;;
19848;SDS011;10085;51.120;6.956;2023-05-20T04:08:51;3.22;;;2.20;;
19848;SDS011;10085;51.120;6.956;2023-05-20T04:13:56;2.95;;;2.20;;
19848;SDS011;10085;51.120;6.956;2023-05-20T04:19:00;2.40;;;2.00;;
19848;SDS011;10085;51.120;6.956;2023-05-20T04:24:04;2.58;;;2.00;;
19848;SDS011;10085;51.120;6.956;2023-05-20T04:29:09;3.17;;;2.08;;
19848;SDS011;10085;51.120;6.956;2023-05-20T04:34:12;3.40;;;2.30;;
19848;SDS011;10085;51.120;6.956;2023-05-20T04:39:16;2.45;;;2.03;;
19848;SDS011;10085;51.120;6.956;2023-05-20T04:44:26;5.32;;;2.20;;
19848;SDS011;10085;51.120;6.956;2023-05-20T04:49:30;2.10;;;1.88;;
19848;SDS011;10085;51.120;6.956;2023-05-20T04:54:33;2.67;;;1.95;;
19848;SDS011;10085;51.120;6.956;2023-05-20T04:59:38;3.30;;;2.00;;
19848;SDS011;10085;51.120;6.956;2023-05-20T05:04:41;4.18;;;1.80;;
19848;SDS011;10085;51.120;6.956;2023-05-20T05:09:43;2.30;;;1.80;;
19848;SDS011;10085;51.120;6.956;2023-05-20T05:14:47;3.05;;;2.00;;
19848;SDS011;10085;51.120;6.956;2023-05-20T05:19:51;2.15;;;1.90;;
19848;SDS011;10085;51.120;6.956;2023-05-20T05:24:54;2.22;;;2.00;;
19848;SDS011;10085;51.120;6.956;2023-05-20T05:29:58;2.75;;;1.70;;
19848;SDS011;10085;51.120;6.956;2023-05-20T05:35:02;2.60;;;1.70;;
19848;SDS011;10085;51.120;6.956;2023-05-20T05:40:08;2.20;;;1.77;;
19848;SDS011;10085;51.120;6.956;2023-05-20T05:45:13;2.22;;;1.77;;
19848;SDS011;10085;51.120;6.956;2023-05-20T05:50:16;1.88;;;1.63;;
19848;SDS011;10085;51.120;6.956;2023-05-20T05:55:19;1.70;;;1.55;;
19848;SDS011;10085;51.120;6.956;2023-05-20T06:00:25;2.10;;;1.90;;
19848;SDS011;10085;51.120;6.956;2023-05-20T06:05:28;3.53;;;2.00;;
19848;SDS011;10085;51.120;6.956;2023-05-20T06:10:32;1.77;;;1.60;;
19848;SDS011;10085;51.120;6.956;2023-05-20T06:15:38;3.03;;;1.77;;
19848;SDS011;10085;51.120;6.956;2023-05-20T06:20:41;2.60;;;1.90;;
19848;SDS011;10085;51.120;6.956;2023-05-20T06:25:44;4.72;;;2.10;;
19848;SDS011;10085;51.120;6.956;2023-05-20T06:30:49;2.28;;;1.80;;
19848;SDS011;10085;51.120;6.956;2023-05-20T06:35:53;2.88;;;1.90;;
19848;SDS011;10085;51.120;6.956;2023-05-20T06:40:57;2.13;;;1.83;;
19848;SDS011;10085;51.120;6.956;2023-05-20T06:46:01;3.20;;;2.08;;
19848;SDS011;10085;51.120;6.956;2023-05-20T06:51:11;2.53;;;1.83;;
19848;SDS011;10085;51.120;6.956;2023-05-20T06:56:14;2.15;;;1.80;;
19848;SDS011;10085;51.120;6.956;2023-05-20T07:01:19;2.85;;;2.00;;
19848;SDS011;10085;51.120;6.956;2023-05-20T07:06:21;2.65;;;1.90;;
19848;SDS011;10085;51.120;6.956;2023-05-20T07:11:24;3.85;;;2.15;;
19848;SDS011;10085;51.120;6.956;2023-05-20T07:16:29;2.65;;;1.77;;
19848;SDS011;10085;51.120;6.956;2023-05-20T07:21:33;2.35;;;2.00;;
19848;SDS011;10085;51.120;6.956;2023-05-20T07:26:42;2.78;;;2.10;;
19848;SDS011;10085;51.120;6.956;2023-05-20T07:31:46;5.72;;;2.72;;
19848;SDS011;10085;51.120;6.956;2023-05-20T07:36:50;13.52;;;7.20;;
19848;SDS011;10085;51.120;6.956;2023-05-20T07:41:53;18.95;;;9.48;;
19848;SDS011;10085;51.120;6.956;2023-05-20T07:46:58;22.10;;;9.15;;
19848;SDS011;10085;51.120;6.956;2023-05-20T07:52:01;23.30;;;9.68;;
19848;SDS011;10085;51.120;6.956;2023-05-20T07:57:04;19.27;;;9.18;;
19848;SDS011;10085;51.120;6.956;2023-05-20T08:02:09;17.67;;;8.25;;
19848;SDS011;10085;51.120;6.956;2023-05-20T08:07:12;14.60;;;6.65;;
19848;SDS011;10085;51.120;6.956;2023-05-20T08:12:22;13.70;;;6.18;;
19848;SDS011;10085;51.120;6.956;2023-05-20T08:17:27;16.02;;;7.22;;
19848;SDS011;10085;51.120;6.956;2023-05-20T08:22:30;14.32;;;6.47;;
19848;SDS011;10085;51.120;6.956;2023-05-20T08:27:32;12.15;;;5.65;;
19848;SDS011;10085;51.120;6.956;2023-05-20T08:32:37;10.68;;;5.43;;
19848;SDS011;10085;51.120;6.956;2023-05-20T08:37:40;9.77;;;4.20;;
19848;SDS011;10085;51.120;6.956;2023-05-20T08:42:43;13.23;;;4.57;;
19848;SDS011;10085;51.120;6.956;2023-05-20T08:47:48;15.93;;;4.47;;
19848;SDS011;10085;51.120;6.956;2023-05-20T08:52:52;14.18;;;4.95;;
19848;SDS011;10085;51.120;6.956;2023-05-20T08:57:55;15.70;;;5.15;;
19848;SDS011;10085;51.120;6.956;2023-05-20T09:02:59;14.88;;;4.43;;
19848;SDS011;10085;51.120;6.956;2023-05-20T09:08:03;18.02;;;5.65;;
19848;SDS011;10085;51.120;6.956;2023-05-20T09:13:08;11.82;;;4.35;;
19848;SDS011;10085;51.120;6.956;2023-05-20T09:18:14;12.05;;;4.65;;
19848;SDS011;10085;51.120;6.956;2023-05-20T09:23:17;17.60;;;4.90;;
19848;SDS011;10085;51.120;6.956;2023-05-20T09:28:21;9.60;;;4.13;;
19848;SDS011;10085;51.120;6.956;2023-05-20T09:33:29;12.93;;;4.32;;
19848;SDS011;10085;51.120;6.956;2023-05-20T09:38:33;9.35;;;3.80;;
19848;SDS011;10085;51.120;6.956;2023-05-20T09:43:38;11.32;;;3.80;;
19848;SDS011;10085;51.120;6.956;2023-05-20T09:48:43;6.28;;;3.30;;
19848;SDS011;10085;51.120;6.956;2023-05-20T09:53:46;12.80;;;3.58;;
19848;SDS011;10085;51.120;6.956;2023-05-20T09:58:48;8.18;;;3.58;;
19848;SDS011;10085;51.120;6.956;2023-05-20T10:03:54;4.63;;;3.15;;
19848;SDS011;10085;51.120;6.956;2023-05-20T10:09:02;7.38;;;3.80;;
19848;SDS011;10085;51.120;6.956;2023-05-20T10:14:15;6.75;;;3.58;;
19848;SDS011;10085;51.120;6.956;2023-05-20T10:19:31;7.07;;;3.38;;
19848;SDS011;10085;51.120;6.956;2023-05-20T10:24:35;6.93;;;3.50;;
19848;SDS011;10085;51.120;6.956;2023-05-20T10:29:41;7.00;;;3.22;;
19848;SDS011;10085;51.120;6.956;2023-05-20T10:34:47;6.25;;;3.33;;
19848;SDS011;10085;51.120;6.956;2023-05-20T10:39:51;7.35;;;3.15;;
19848;SDS011;10085;51.120;6.956;2023-05-20T10:44:54;5.93;;;3.42;;
19848;SDS011;10085;51.120;6.956;2023-05-20T10:49:58;5.35;;;3.45;;
19848;SDS011;10085;51.120;6.956;2023-05-20T10:55:02;5.95;;;3.53;;
19848;SDS011;10085;51.120;6.956;2023-05-20T11:00:06;6.30;;;3.50;;
19848;SDS011;10085;51.120;6.956;2023-05-20T11:05:12;7.38;;;3.00;;
19848;SDS011;10085;51.120;6.956;2023-05-20T11:10:15;5.10;;;3.55;;
19848;SDS011;10085;51.120;6.956;2023-05-20T11:15:17;6.10;;;3.65;;
19848;SDS011;10085;51.120;6.956;2023-05-20T11:20:22;4.55;;;2.92;;
19848;SDS011;10085;51.120;6.956;2023-05-20T11:25:26;4.88;;;3.05;;
19848;SDS011;10085;51.120;6.956;2023-05-20T11:30:29;4.85;;;2.88;;
19848;SDS011;10085;51.120;6.956;2023-05-20T11:35:33;3.75;;;2.60;;
19848;SDS011;10085;51.120;6.956;2023-05-20T11:40:35;6.63;;;3.13;;
19848;SDS011;10085;51.120;6.956;2023-05-20T11:45:51;4.38;;;2.90;;
19848;SDS011;10085;51.120;6.956;2023-05-20T11:50:56;5.85;;;3.10;;
19848;SDS011;10085;51.120;6.956;2023-05-20T11:56:02;4.43;;;2.60;;
19848;SDS011;10085;51.120;6.956;2023-05-20T12:01:05;4.10;;;3.05;;
19848;SDS011;10085;51.120;6.956;2023-05-20T12:06:23;5.13;;;3.22;;
19848;SDS011;10085;51.120;6.956;2023-05-20T12:11:27;3.40;;;2.50;;
19848;SDS011;10085;51.120;6.956;2023-05-20T12:16:30;4.50;;;3.05;;
19848;SDS011;10085;51.120;6.956;2023-05-20T12:21:35;3.63;;;2.65;;
19848;SDS011;10085;51.120;6.956;2023-05-20T12:26:38;6.85;;;3.17;;
19848;SDS011;10085;51.120;6.956;2023-05-20T12:31:41;4.25;;;2.85;;
19848;SDS011;10085;51.120;6.956;2023-05-20T12:36:45;4.18;;;3.00;;
19848;SDS011;10085;51.120;6.956;2023-05-20T12:41:48;6.13;;;3.60;;
19848;SDS011;10085;51.120;6.956;2023-05-20T12:46:53;4.32;;;3.22;;
19848;SDS011;10085;51.120;6.956;2023-05-20T12:51:57;4.60;;;2.65;;
19848;SDS011;10085;51.120;6.956;2023-05-20T12:57:03;3.92;;;2.70;;
19848;SDS011;10085;51.120;6.956;2023-05-20T13:02:06;4.40;;;2.95;;
19848;SDS011;10085;51.120;6.956;2023-05-20T13:07:12;5.13;;;3.40;;
19848;SDS011;10085;51.120;6.956;2023-05-20T13:12:15;3.40;;;2.80;;
19848;SDS011;10085;51.120;6.956;2023-05-20T13:17:17;3.53;;;2.80;;
19848;SDS011;10085;51.120;6.956;2023-05-20T13:22:21;4.53;;;3.42;;
19848;SDS011;10085;51.120;6.956;2023-05-20T13:27:24;4.10;;;2.85;;
19848;SDS011;10085;51.120;6.956;2023-05-20T13:32:27;4.10;;;2.97;;
19848;SDS011;10085;51.120;6.956;2023-05-20T13:37:31;3.78;;;2.75;;
19848;SDS011;10085;51.120;6.956;2023-05-20T13:42:34;3.92;;;2.80;;
19848;SDS011;10085;51.120;6.956;2023-05-20T13:47:37;4.05;;;3.03;;
19848;SDS011;10085;51.120;6.956;2023-05-20T13:52:41;3.90;;;2.90;;
19848;SDS011;10085;51.120;6.956;2023-05-20T13:57:47;3.78;;;2.65;;
19848;SDS011;10085;51.120;6.956;2023-05-20T14:02:50;3.95;;;2.90;;
19848;SDS011;10085;51.120;6.956;2023-05-20T14:07:55;4.13;;;2.95;;
19848;SDS011;10085;51.120;6.956;2023-05-20T14:12:58;3.40;;;2.88;;
19848;SDS011;10085;51.120;6.956;2023-05-20T14:18:02;3.40;;;2.67;;
19848;SDS011;10085;51.120;6.956;2023-05-20T14:23:06;4.43;;;2.85;;
19848;SDS011;10085;51.120;6.956;2023-05-20T14:28:09;3.83;;;3.10;;
19848;SDS011;10085;51.120;6.956;2023-05-20T14:33:12;2.83;;;2.50;;
19848;SDS011;10085;51.120;6.956;2023-05-20T14:38:16;4.32;;;3.20;;
19848;SDS011;10085;51.120;6.956;2023-05-20T14:43:21;4.07;;;2.90;;
19848;SDS011;10085;51.120;6.956;2023-05-20T14:48:24;4.72;;;3.10;;
19848;SDS011;10085;51.120;6.956;2023-05-20T14:53:28;6.80;;;2.92;;
19848;SDS011;10085;51.120;6.956;2023-05-20T14:58:31;4.85;;;3.00;;
19848;SDS011;10085;51.120;6.956;2023-05-20T15:03:33;3.30;;;2.70;;
19848;SDS011;10085;51.120;6.956;2023-05-20T15:08:38;4.07;;;3.15;;
19848;SDS011;10085;51.120;6.956;2023-05-20T15:13:41;4.43;;;3.22;;
19848;SDS011;10085;51.120;6.956;2023-05-20T15:18:46;4.53;;;3.22;;
19848;SDS011;10085;51.120;6.956;2023-05-20T15:23:50;4.80;;;3.10;;
19848;SDS011;10085;51.120;6.956;2023-05-20T15:28:53;4.68;;;3.03;;
19848;SDS011;10085;51.120;6.956;2023-05-20T15:33:56;4.72;;;3.20;;
19848;SDS011;10085;51.120;6.956;2023-05-20T15:39:00;3.80;;;3.28;;
19848;SDS011;10085;51.120;6.956;2023-05-20T15:44:03;4.55;;;3.15;;
19848;SDS011;10085;51.120;6.956;2023-05-20T15:49:05;4.25;;;3.30;;
19848;SDS011;10085;51.120;6.956;2023-05-20T15:54:09;5.72;;;3.13;;
19848;SDS011;10085;51.120;6.956;2023-05-20T15:59:12;3.45;;;2.58;;
19848;SDS011;10085;51.120;6.956;2023-05-20T16:04:15;5.00;;;2.63;;
19848;SDS011;10085;51.120;6.956;2023-05-20T16:09:19;3.75;;;2.83;;
19848;SDS011;10085;51.120;6.956;2023-05-20T16:14:22;6.43;;;3.80;;
19848;SDS011;10085;51.120;6.956;2023-05-20T16:19:25;3.97;;;2.88;;
19848;SDS011;10085;51.120;6.956;2023-05-20T16:24:29;3.90;;;2.80;;
19848;SDS011;10085;51.120;6.956;2023-05-20T16:29:32;5.40;;;3.70;;
19848;SDS011;10085;51.120;6.956;2023-05-20T16:34:34;4.07;;;2.90;;
19848;SDS011;10085;51.120;6.956;2023-05-20T16:39:39;3.38;;;2.70;;
19848;SDS011;10085;51.120;6.956;2023-05-20T16:44:42;3.25;;;2.80;;
19848;SDS011;10085;51.120;6.956;2023-05-20T16:49:44;3.30;;;2.78;;
19848;SDS011;10085;51.120;6.956;2023-05-20T16:54:48;3.92;;;3.22;;
19848;SDS011;10085;51.120;6.956;2023-05-20T16:59:52;5.32;;;3.47;;
19848;SDS011;10085;51.120;6.956;2023-05-20T17:04:55;3.90;;;3.25;;
19848;SDS011;10085;51.120;6.956;2023-05-20T17:09:59;4.00;;;3.13;;
19848;SDS011;10085;51.120;6.956;2023-05-20T17:15:02;4.18;;;3.28;;
19848;SDS011;10085;51.120;6.956;2023-05-20T17:20:06;3.97;;;3.08;;
19848;SDS011;10085;51.120;6.956;2023-05-20T17:25:11;4.22;;;2.90;;
19848;SDS011;10085;51.120;6.956;2023-05-20T17:30:14;4.55;;;3.30;;
19848;SDS011;10085;51.120;6.956;2023-05-20T17:35:17;5.25;;;3.47;;
19848;SDS011;10085;51.120;6.956;2023-05-20T17:40:22;4.18;;;3.00;;
19848;SDS011;10085;51.120;6.956;2023-05-20T17:45:24;4.05;;;3.47;;
19848;SDS011;10085;51.120;6.956;2023-05-20T17:50:27;4.85;;;3.65;;
19848;SDS011;10085;51.120;6.956;2023-05-20T17:55:31;4.32;;;3.17;;
19848;SDS011;10085;51.120;6.956;2023-05-20T18:00:36;3.95;;;2.95;;
19848;SDS011;10085;51.120;6.956;2023-05-20T18:05:42;3.90;;;3.10;;
19848;SDS011;10085;51.120;6.956;2023-05-20T18:10:46;4.53;;;3.25;;
19848;SDS011;10085;51.120;6.956;2023-05-20T18:15:49;4.60;;;3.60;;
19848;SDS011;10085;51.120;6.956;2023-05-20T18:20:52;4.00;;;3.17;;
19848;SDS011;10085;51.120;6.956;2023-05-20T18:25:57;4.15;;;3.28;;
19848;SDS011;10085;51.120;6.956;2023-05-20T18:30:59;3.72;;;3.20;;
19848;SDS011;10085;51.120;6.956;2023-05-20T18:36:02;4.47;;;2.92;;
19848;SDS011;10085;51.120;6.956;2023-05-20T18:41:07;4.53;;;3.10;;
19848;SDS011;10085;51.120;6.956;2023-05-20T18:46:10;4.35;;;3.40;;
19848;SDS011;10085;51.120;6.956;2023-05-20T18:51:13;3.95;;;3.20;;
19848;SDS011;10085;51.120;6.956;2023-05-20T18:56:17;3.75;;;3.33;;
19848;SDS011;10085;51.120;6.956;2023-05-20T19:01:19;4.45;;;3.60;;
19848;SDS011;10085;51.120;6.956;2023-05-20T19:06:24;4.85;;;3.72;;
19848;SDS011;10085;51.120;6.956;2023-05-20T19:11:28;3.95;;;3.15;;
19848;SDS011;10085;51.120;6.956;2023-05-20T19:16:31;4.50;;;3.47;;
19848;SDS011;10085;51.120;6.956;2023-05-20T19:21:34;4.68;;;3.78;;
19848;SDS011;10085;51.120;6.956;2023-05-20T19:26:40;4.60;;;3.30;;
19848;SDS011;10085;51.120;6.956;2023-05-20T19:31:43;4.93;;;3.45;;
19848;SDS011;10085;51.120;6.956;2023-05-20T19:36:46;4.55;;;3.40;;
19848;SDS011;10085;51.120;6.956;2023-05-20T19:41:50;4.28;;;3.20;;
19848;SDS011;10085;51.120;6.956;2023-05-20T19:46:53;5.43;;;3.67;;
19848;SDS011;10085;51.120;6.956;2023-05-20T19:51:55;5.30;;;3.70;;
19848;SDS011;10085;51.120;6.956;2023-05-20T19:57:00;5.60;;;3.92;;
19848;SDS011;10085;51.120;6.956;2023-05-20T20:02:03;4.88;;;3.95;;
19848;SDS011;10085;51.120;6.956;2023-05-20T20:07:06;5.97;;;4.05;;
19848;SDS011;10085;51.120;6.956;2023-05-20T20:12:11;5.50;;;3.95;;
19848;SDS011;10085;51.120;6.956;2023-05-20T20:17:13;5.05;;;3.88;;
19848;SDS011;10085;51.120;6.956;2023-05-20T20:22:17;5.10;;;3.90;;
19848;SDS011;10085;51.120;6.956;2023-05-20T20:27:21;4.78;;;3.70;;
19848;SDS011;10085;51.120;6.956;2023-05-20T20:32:24;8.10;;;5.18;;
19848;SDS011;10085;51.120;6.956;2023-05-20T20:37:28;8.15;;;5.05;;
19848;SDS011;10085;51.120;6.956;2023-05-20T20:42:32;4.43;;;3.60;;
19848;SDS011;10085;51.120;6.956;2023-05-20T20:47:35;7.90;;;4.22;;
19848;SDS011;10085;51.120;6.956;2023-05-20T20:52:38;6.35;;;4.45;;
19848;SDS011;10085;51.120;6.956;2023-05-20T20:57:44;5.85;;;4.47;;
19848;SDS011;10085;51.120;6.956;2023-05-20T21:02:48;6.38;;;4.70;;
19848;SDS011;10085;51.120;6.956;2023-05-20T21:07:51;6.38;;;4.60;;
19848;SDS011;10085;51.120;6.956;2023-05-20T21:12:59;6.63;;;4.60;;
19848;SDS011;10085;51.120;6.956;2023-05-20T21:18:02;7.30;;;4.45;;
19848;SDS011;10085;51.120;6.956;2023-05-20T21:23:05;7.40;;;4.43;;
19848;SDS011;10085;51.120;6.956;2023-05-20T21:28:09;7.25;;;4.60;;
19848;SDS011;10085;51.120;6.956;2023-05-20T21:33:11;7.70;;;5.20;;
19848;SDS011;10085;51.120;6.956;2023-05-20T21:38:14;4.57;;;3.72;;
19848;SDS011;10085;51.120;6.956;2023-05-20T21:43:18;5.20;;;4.28;;
19848;SDS011;10085;51.120;6.956;2023-05-20T21:48:21;6.95;;;4.90;;
19848;SDS011;10085;51.120;6.956;2023-05-20T21:53:24;7.30;;;4.90;;
19848;SDS011;10085;51.120;6.956;2023-05-20T21:58:28;7.88;;;5.50;;
19848;SDS011;10085;51.120;6.956;2023-05-20T22:03:30;6.80;;;4.85;;
19848;SDS011;10085;51.120;6.956;2023-05-20T22:08:33;9.30;;;6.05;;
19848;SDS011;10085;51.120;6.956;2023-05-20T22:13:37;7.25;;;4.75;;
19848;SDS011;10085;51.120;6.956;2023-05-20T22:18:41;7.45;;;5.50;;
19848;SDS011;10085;51.120;6.956;2023-05-20T22:23:44;7.85;;;5.28;;
19848;SDS011;10085;51.120;6.956;2023-05-20T22:28:48;6.97;;;4.65;;
19848;SDS011;10085;51.120;6.956;2023-05-20T22:33:51;5.90;;;4.57;;
19848;SDS011;10085;51.120;6.956;2023-05-20T22:38:54;9.77;;;5.28;;
19848;SDS011;10085;51.120;6.956;2023-05-20T22:43:58;8.38;;;5.70;;
19848;SDS011;10085;51.120;6.956;2023-05-20T22:49:01;9.82;;;6.05;;
19848;SDS011;10085;51.120;6.956;2023-05-20T22:54:04;9.00;;;4.97;;
19848;SDS011;10085;51.120;6.956;2023-05-20T22:59:09;6.93;;;5.03;;
19848;SDS011;10085;51.120;6.956;2023-05-20T23:04:12;7.65;;;5.03;;
19848;SDS011;10085;51.120;6.956;2023-05-20T23:09:14;8.73;;;5.82;;
19848;SDS011;10085;51.120;6.956;2023-05-20T23:14:18;7.72;;;4.97;;
19848;SDS011;10085;51.120;6.956;2023-05-20T23:19:21;8.43;;;5.63;;
19848;SDS011;10085;51.120;6.956;2023-05-20T23:24:24;9.18;;;6.00;;
19848;SDS011;10085;51.120;6.956;2023-05-20T23:29:28;9.60;;;5.60;;
19848;SDS011;10085;51.120;6.956;2023-05-20T23:34:31;6.82;;;4.90;;
19848;SDS011;10085;51.120;6.956;2023-05-20T23:39:34;9.02;;;6.00;;
19848;SDS011;10085;51.120;6.956;2023-05-20T23:44:38;8.40;;;5.28;;
19848;SDS011;10085;51.120;6.956;2023-05-20T23:49:41;9.07;;;5.63;;
19848;SDS011;10085;51.120;6.956;2023-05-20T23:54:49;8.60;;;5.53;;
19848;SDS011;10085;51.120;6.956;2023-05-20T23:59:54;8.00;;;5.25;;
